• Join FlightAware (Why Join?)
  • Login
  • US Flag 
05:15PM EDT


 

Airport Tracker/Info


-or-


 

Live Flight TrackerFlight Track Log ✈ AIP5036 ✈ 03-Apr-2014 ✈ KBIL - KMSO

Flight Track Log - Related Links

Times and Time Zones

All times are in EDT time to prevent confusion due to time zone crossing. See the AIP5036 flight status page for this flight to view local times or setup timezone preferences in your user account.

Time Position Orientation Groundspeed Altitude Reporting Facility
EDT Latitude Longitude Course Direction KTS MPH feet Rate Location/Type
03:34AM 45.8286 -108.6433 286° West 120 138 7,100  Level Salt Lake Center
03:35AM 45.9061 -109.0057 287° West  Level FlightAware Approximate
03:35AM 45.8386 -108.6864 288° West 116 133 8,500  Level Salt Lake Center
03:36AM 45.9225 -109.0824 287° West  Level FlightAware Approximate
03:36AM 45.8492 -108.7281 290° West 116 133 9,700  Level Salt Lake Center
03:37AM 45.9385 -109.1592 286° West  Level FlightAware Approximate
03:37AM 45.8569 -108.7850 281° West 116 133 11,100  Level Salt Lake Center
03:38AM 45.9548 -109.2360 290° West  Level FlightAware Approximate
03:38AM 45.8678 -108.8314 289° West 118 136 12,300  Level Salt Lake Center
03:39AM 45.9737 -109.3115 290° West  Level FlightAware Approximate
03:39AM 45.8794 -108.8775 290° West 121 139 13,300  Level Salt Lake Center
03:40AM 45.9909 -109.3879 286° West  Level FlightAware Approximate
03:40AM 45.8906 -108.9264 288° West 122 140 14,100  Level Salt Lake Center
03:41AM 45.9100 -108.9864 295° West 145 167 14,200  Climbing Salt Lake Center
03:42AM 45.9267 -109.0575 289° West 167 192 14,100 -60 Descending Salt Lake Center
03:43AM 45.9436 -109.1308 288° West 181 208 14,100  Level Salt Lake Center
03:44AM 45.9597 -109.2053 287° West 189 217 14,100  Level Salt Lake Center
03:45AM 45.9769 -109.2778 289° West 190 219 14,100  Level Salt Lake Center
03:46AM 45.9942 -109.3506 289° West 190 219 14,100 -60 Level Salt Lake Center
03:47AM 46.0075 -109.4233 285° West 190 219 14,000  Descending Salt Lake Center
03:48AM 46.0189 -109.4983 282° West 190 219 14,100  Climbing Salt Lake Center
03:49AM 46.0372 -109.5719 290° West 191 220 14,000  Descending Salt Lake Center
03:50AM 46.0586 -109.6403 294° West 192 221 14,100  Climbing Salt Lake Center
03:51AM 46.0739 -109.7103 287° West 189 217 14,100  Level Salt Lake Center
03:52AM 46.0878 -109.7842 285° West 189 217 14,100  Level Salt Lake Center
03:53AM 46.0997 -109.8642 282° West 193 222 14,100  Level Salt Lake Center
03:54AM 46.1172 -109.9397 289° West 196 226 14,100  Level Salt Lake Center
03:55AM 46.1333 -110.0153 287° West 196 226 14,100  Level Salt Lake Center
03:56AM 46.1483 -110.0956 285° West 200 230 14,100  Level Salt Lake Center
03:58AM 46.1656 -110.1683 289° West 200 230 14,200  Climbing Salt Lake Center
03:59AM 46.1817 -110.2436 287° West 200 230 14,100 -120 Descending Salt Lake Center
04:00AM 46.1989 -110.3197 288° West 200 230 14,000  Descending Salt Lake Center
04:01AM 46.2169 -110.4044 287° West 199 229 14,100  Climbing Salt Lake Center
04:16AM 46.4522 -111.5739 286° West 200 230 14,000 -60 Descending Salt Lake Center
04:17AM 46.4610 -111.6491 287° West  Level FlightAware Approximate
04:17AM 46.4656 -111.6458 285° West 200 230 14,000  Level Salt Lake Center
04:18AM 46.4768 -111.7268 287° West  Level FlightAware Approximate
04:18AM 46.4817 -111.7231 287° West 201 231 14,100  Level Salt Lake Center
04:19AM 46.4926 -111.8046 286° West  Level FlightAware Approximate
04:19AM 46.4967 -111.8014 286° West 201 231 14,000  Level Salt Lake Center
04:20AM 46.5083 -111.8824 286° West  Level FlightAware Approximate
04:20AM 46.5131 -111.8792 287° West 201 231 14,000  Level Salt Lake Center
04:21AM 46.5240 -111.9602 286° West  Level FlightAware Approximate
04:21AM 46.5278 -111.9556 286° West 201 231 14,100  Level Salt Lake Center
04:22AM 46.5447 -112.0308 288° West 199 229 14,100  Level Salt Lake Center
04:23AM 46.5589 -112.1072 285° West 199 229 14,100 -60 Level Salt Lake Center
04:24AM 46.5731 -112.1847 285° West 198 228 14,000  Descending Salt Lake Center
04:25AM 46.5858 -112.2625 283° West 198 228 14,100  Climbing Salt Lake Center
04:26AM 46.5914 -112.3442 276° West 204 235 14,100 -60 Level Salt Lake Center
04:27AM 46.6081 -112.4217 287° West 203 234 14,000  Descending Salt Lake Center
04:28AM 46.6197 -112.5025 282° West 205 236 14,200  Climbing Salt Lake Center
04:29AM 46.6442 -112.5944 291° West 205 236 14,000 -120 Descending Salt Lake Center
04:30AM 46.6661 -112.6725 292° West 207 238 14,000  Level Salt Lake Center
04:31AM 46.6828 -112.7469 288° West 198 228 14,000  Level Salt Lake Center
04:32AM 46.6981 -112.8286 285° West 207 238 14,000  Level Salt Lake Center
04:33AM 46.7128 -112.9086 285° West 206 237 14,000  Level Salt Lake Center
04:34AM 46.7244 -112.9803 283° West 206 237 14,000  Level Salt Lake Center
04:35AM 46.7367 -113.0594 283° West 205 236 14,000  Level Salt Lake Center
04:36AM 46.7519 -113.1392 286° West 204 235 14,000  Level Salt Lake Center
04:37AM 46.7647 -113.2189 283° West 204 235 14,000  Level Salt Lake Center
04:38AM 46.7803 -113.3078 284° West 207 238 14,000  Level Salt Lake Center
04:39AM 46.7933 -113.3875 283° West 204 235 14,000  Level Salt Lake Center
04:40AM 46.8056 -113.4683 282° West 204 235 14,000  Level Salt Lake Center
04:41AM 46.8197 -113.5478 285° West 203 234 14,100 -480 Climbing Salt Lake Center
04:42AM 46.8353 -113.6289 286° West 206 237 13,100 -1,440 Descending Salt Lake Center
04:43AM 46.8508 -113.7272 283° West 229 264 11,300 -1,740 Descending Salt Lake Center
04:44AM 46.8622 -113.8219 280° West 236 272 9,700 -1,980 Descending Salt Lake Center
04:45AM 46.8722 -113.9131 279° West 231 266 7,400 -2,400 Descending Salt Lake Center
04:46AM 46.8736 -114.0006 271° West 221 254 5,000 -1,920 Descending Salt Lake Center
04:47AM 46.8967 -114.0586 300° West 168 193 3,600 -900 Descending Salt Lake Center
04:48AM 46.9136 -114.0872 311° West 126 145 3,200 -420 Descending Salt Lake Center